createdAt,value
2022-08-18T00:03:56.937Z,59.17
2022-08-18T00:08:55.586Z,58.97
2022-08-18T00:14:01.519Z,59.30
2022-08-18T00:19:09.376Z,58.93
2022-08-18T00:24:13.881Z,59.30
2022-08-18T00:29:19.759Z,59.47
2022-08-18T00:34:25.177Z,58.30
2022-08-18T00:39:34.297Z,59.25
2022-08-18T00:44:39.479Z,59.13
2022-08-18T00:49:48.544Z,59.17
2022-08-18T00:54:55.982Z,59.73
2022-08-18T01:00:06.259Z,58.97
2022-08-18T01:05:18.201Z,58.35
2022-08-18T01:10:24.875Z,59.17
2022-08-18T01:15:30.787Z,58.97
2022-08-18T01:20:57.135Z,58.70
2022-08-18T01:26:04.746Z,59.03
2022-08-18T01:31:13.610Z,58.40
2022-08-18T01:36:21.770Z,58.30
2022-08-18T01:41:30.858Z,57.77
2022-08-18T01:46:36.213Z,58.80
2022-08-18T01:51:43.034Z,59.60
2022-08-18T02:01:55.771Z,58.30
2022-08-18T02:07:04.235Z,58.70
2022-08-18T02:12:10.674Z,59.90
2022-08-18T02:17:16.131Z,58.95
2022-08-18T02:22:22.642Z,59.23
2022-08-18T02:32:34.488Z,58.90
2022-08-18T02:37:42.241Z,58.30
2022-08-18T02:42:48.397Z,58.28
2022-08-18T02:47:55.280Z,58.00
2022-08-18T02:53:03.016Z,57.83
2022-08-18T02:58:08.865Z,59.00
2022-08-18T03:03:14.678Z,59.10
2022-08-18T03:08:22.174Z,59.83
2022-08-18T03:13:27.183Z,59.03
2022-08-18T03:18:32.376Z,58.83
2022-08-18T03:23:39.456Z,59.13
2022-08-18T03:28:47.203Z,59.33
2022-08-18T03:33:54.145Z,58.00
2022-08-18T03:39:00.375Z,59.07
2022-08-18T03:44:06.601Z,58.78
2022-08-18T03:49:12.813Z,58.95
2022-08-18T03:54:19.356Z,58.27
2022-08-18T03:59:27.661Z,58.17
2022-08-18T04:04:32.557Z,58.30
2022-08-18T04:09:39.641Z,57.55
2022-08-18T04:14:48.634Z,58.45
2022-08-18T04:19:57.467Z,59.27
2022-08-18T04:25:02.900Z,58.43
2022-08-18T04:30:09.210Z,58.07
2022-08-18T04:35:15.062Z,58.17
2022-08-18T04:40:25.058Z,58.27
2022-08-18T04:45:27.471Z,58.97
2022-08-18T04:50:32.717Z,57.75
2022-08-18T04:55:39.099Z,58.73
2022-08-18T05:00:45.533Z,59.48
2022-08-18T05:05:50.707Z,58.05
2022-08-18T05:11:04.095Z,59.27
2022-08-18T05:16:11.682Z,58.53
2022-08-18T05:21:16.287Z,59.08
2022-08-18T05:26:21.460Z,58.92
2022-08-18T05:31:28.497Z,59.80
2022-08-18T05:36:56.482Z,60.03
2022-08-18T05:42:14.136Z,60.57
2022-08-18T05:47:28.714Z,59.93
2022-08-18T05:52:36.955Z,61.73
2022-08-18T05:57:50.375Z,61.80
2022-08-18T06:03:04.746Z,61.37
2022-08-18T06:08:14.150Z,62.23
2022-08-18T06:13:20.472Z,61.57
2022-08-18T06:18:52.800Z,62.20
2022-08-18T06:24:19.454Z,61.80
2022-08-18T06:29:52.994Z,61.77
2022-08-18T06:35:04.092Z,62.03
2022-08-18T06:40:10.995Z,62.13
2022-08-18T06:45:18.911Z,63.95
2022-08-18T06:50:33.130Z,64.83
2022-08-18T06:55:47.382Z,64.53
2022-08-18T07:00:56.671Z,64.60
2022-08-18T07:06:14.528Z,64.97
2022-08-18T07:11:33.549Z,64.03
2022-08-18T07:16:57.860Z,64.23
2022-08-18T07:21:48.316Z,64.20
2022-08-18T07:27:15.729Z,64.30
2022-08-18T07:32:23.358Z,64.53
2022-08-18T07:37:34.594Z,73.10
2022-08-18T07:43:01.909Z,63.77
2022-08-18T07:48:37.577Z,63.33
2022-08-18T07:53:56.232Z,62.93
2022-08-18T07:59:07.460Z,64.07
2022-08-18T08:04:25.266Z,64.37
2022-08-18T08:09:51.919Z,63.93
2022-08-18T08:15:17.015Z,64.87
2022-08-18T08:20:33.764Z,62.80
2022-08-18T08:25:54.135Z,63.90
2022-08-18T08:31:37.638Z,64.30
2022-08-18T08:36:30.412Z,64.97
2022-08-18T08:42:00.400Z,64.60
2022-08-18T08:47:08.259Z,65.00
2022-08-18T08:52:20.878Z,64.80
2022-08-18T08:57:32.360Z,64.90
2022-08-18T09:02:48.826Z,64.93
2022-08-18T09:08:17.660Z,64.92
2022-08-18T09:13:29.391Z,64.97
2022-08-18T09:18:59.447Z,65.37
2022-08-18T09:24:11.021Z,65.65
2022-08-18T09:29:26.622Z,64.33
2022-08-18T09:34:51.819Z,64.90
2022-08-18T09:40:44.483Z,64.35
2022-08-18T09:45:36.734Z,64.83
2022-08-18T09:51:18.560Z,64.30
2022-08-18T09:56:54.506Z,65.33
2022-08-18T10:02:06.166Z,64.92
2022-08-18T10:07:24.917Z,65.73
2022-08-18T10:12:52.942Z,64.47
2022-08-18T10:18:20.452Z,64.37
2022-08-18T10:23:49.529Z,64.17
2022-08-18T10:28:58.810Z,65.50
2022-08-18T10:34:24.696Z,64.00
2022-08-18T10:39:22.648Z,65.67
2022-08-18T10:44:31.046Z,64.73
2022-08-18T10:49:38.338Z,65.10
2022-08-18T10:54:54.481Z,64.90
2022-08-18T11:00:13.255Z,65.55
2022-08-18T11:05:21.452Z,65.43
2022-08-18T11:11:06.463Z,65.77
2022-08-18T11:16:13.219Z,65.33
2022-08-18T11:21:42.633Z,64.60
2022-08-18T11:27:00.019Z,64.03
2022-08-18T11:32:11.939Z,64.90
2022-08-18T11:37:51.638Z,65.40
2022-08-18T11:42:57.768Z,65.20
2022-08-18T11:48:21.064Z,65.37
2022-08-18T11:53:35.314Z,66.97
2022-08-18T11:58:50.520Z,65.80
2022-08-18T12:03:57.411Z,66.27
2022-08-18T12:09:54.050Z,65.13
2022-08-18T12:19:35.925Z,65.22
2022-08-18T12:24:43.152Z,64.77
2022-08-18T12:29:50.875Z,65.93
2022-08-18T12:34:56.599Z,68.40
2022-08-18T12:40:02.229Z,66.83
2022-08-18T12:45:08.793Z,64.83
2022-08-18T12:50:13.811Z,66.73
2022-08-18T12:55:21.355Z,70.90
2022-08-18T13:00:28.808Z,66.80
2022-08-18T13:05:34.901Z,65.57
2022-08-18T13:10:46.641Z,64.77
2022-08-18T13:15:58.004Z,65.23
2022-08-18T13:21:00.314Z,63.90
2022-08-18T13:26:08.758Z,64.03
2022-08-18T13:31:16.463Z,63.50
2022-08-18T13:36:22.531Z,65.03
2022-08-18T13:46:33.257Z,64.83
2022-08-18T13:51:38.931Z,63.87
2022-08-18T13:56:51.659Z,64.97
2022-08-18T14:01:53.619Z,63.60
2022-08-18T14:07:01.211Z,64.50
2022-08-18T14:12:15.363Z,63.92
2022-08-18T14:17:16.976Z,64.50
2022-08-18T14:22:41.368Z,64.43
2022-08-18T14:27:56.219Z,64.15
2022-08-18T14:32:55.185Z,64.25
2022-08-18T14:38:02.968Z,65.30
2022-08-18T14:43:10.106Z,64.57
2022-08-18T14:48:18.612Z,64.26
2022-08-18T14:53:26.606Z,64.50
2022-08-18T14:58:33.370Z,64.80
2022-08-18T15:03:40.199Z,64.60
2022-08-18T15:08:46.881Z,65.33
2022-08-18T15:13:55.060Z,65.45
2022-08-18T15:19:01.896Z,65.37
2022-08-18T15:24:26.834Z,65.83
2022-08-18T15:29:32.329Z,65.72
2022-08-18T15:34:46.466Z,64.90
2022-08-18T15:39:45.850Z,66.27
2022-08-18T15:44:53.792Z,64.33
2022-08-18T15:49:59.507Z,65.50
2022-08-18T15:55:08.244Z,65.27
2022-08-18T16:00:17.893Z,66.43
2022-08-18T16:05:24.291Z,65.40
2022-08-18T16:10:33.441Z,65.57
2022-08-18T16:15:41.823Z,65.10
2022-08-18T16:20:47.646Z,65.73
2022-08-18T16:25:56.006Z,65.23
2022-08-18T16:31:02.779Z,65.43
2022-08-18T16:36:10.866Z,64.87
2022-08-18T16:41:17.465Z,65.32
2022-08-18T16:46:26.461Z,65.63
2022-08-18T16:51:31.860Z,66.35
2022-08-18T16:56:38.519Z,66.28
2022-08-18T17:02:02.139Z,66.13
2022-08-18T17:07:08.402Z,65.90
2022-08-18T17:12:14.358Z,67.73
2022-08-18T17:17:20.255Z,66.23
2022-08-18T17:22:26.173Z,66.55
2022-08-18T17:27:37.683Z,66.23
2022-08-18T17:32:47.143Z,77.73
2022-08-18T17:37:57.968Z,71.87
2022-08-18T17:43:03.865Z,65.50
2022-08-18T17:48:21.031Z,68.20
2022-08-18T17:53:26.560Z,66.90
2022-08-18T17:58:35.515Z,69.80
2022-08-18T18:03:41.031Z,67.63
2022-08-18T18:09:04.201Z,68.95
2022-08-18T18:14:28.616Z,69.00
2022-08-18T18:19:36.735Z,68.67
2022-08-18T18:24:44.992Z,67.97
2022-08-18T18:30:03.984Z,66.50
2022-08-18T18:35:27.583Z,66.97
2022-08-18T18:40:35.341Z,66.23
2022-08-18T18:45:41.626Z,68.78
2022-08-18T18:50:55.694Z,68.50
2022-08-18T18:56:19.494Z,67.20
2022-08-18T19:01:31.697Z,66.80
2022-08-18T19:06:48.557Z,65.97
2022-08-18T19:12:12.204Z,67.53
2022-08-18T19:17:26.033Z,67.10
2022-08-18T19:22:49.704Z,67.50
2022-08-18T19:28:04.262Z,66.87
2022-08-18T19:33:14.641Z,66.03
2022-08-18T19:38:28.303Z,66.40
2022-08-18T19:43:56.258Z,65.80
2022-08-18T19:49:16.779Z,66.53
2022-08-18T19:54:33.916Z,65.67
2022-08-18T19:59:48.570Z,66.70
2022-08-18T20:05:11.445Z,66.47
2022-08-18T20:10:41.835Z,66.80
2022-08-18T20:16:10.935Z,66.53
2022-08-18T20:21:22.571Z,66.40
2022-08-18T20:26:40.335Z,66.60
2022-08-18T20:31:51.870Z,67.30
2022-08-18T20:36:59.101Z,67.80
2022-08-18T20:42:07.931Z,66.30
2022-08-18T20:47:47.603Z,66.30
2022-08-18T20:53:17.756Z,67.00
2022-08-18T20:58:28.217Z,65.67
2022-08-18T21:03:42.100Z,66.33
2022-08-18T21:08:53.651Z,64.83
2022-08-18T21:14:04.280Z,65.27
2022-08-18T21:19:14.906Z,66.40
2022-08-18T21:24:29.022Z,65.13
2022-08-18T21:29:46.976Z,65.57
2022-08-18T21:34:45.349Z,65.50
2022-08-18T21:39:56.520Z,65.40
2022-08-18T21:45:02.506Z,64.50
2022-08-18T21:50:14.809Z,64.27
2022-08-18T21:55:31.753Z,64.65
2022-08-18T22:00:42.820Z,64.83
2022-08-18T22:06:02.370Z,64.87
2022-08-18T22:11:59.840Z,64.22
2022-08-18T22:16:42.075Z,64.43
2022-08-18T22:22:02.077Z,64.07
2022-08-18T22:27:12.403Z,65.30
2022-08-18T22:32:21.632Z,64.33
2022-08-18T22:37:30.024Z,63.97
2022-08-18T22:42:35.964Z,64.00
2022-08-18T22:47:44.837Z,63.52
2022-08-18T22:52:50.708Z,64.37
2022-08-18T22:57:57.181Z,63.33
2022-08-18T23:03:03.273Z,65.05
2022-08-18T23:08:08.490Z,64.13
2022-08-18T23:13:14.124Z,64.17
2022-08-18T23:18:21.932Z,64.00
2022-08-18T23:23:29.048Z,63.43
2022-08-18T23:28:34.878Z,63.67
2022-08-18T23:33:41.787Z,63.50
2022-08-18T23:38:47.701Z,62.97
2022-08-18T23:43:53.543Z,63.83
2022-08-18T23:49:01.572Z,63.85
2022-08-18T23:54:10.259Z,62.93
2022-08-18T23:59:18.056Z,62.77
